createdAt,value
2022-09-26T00:01:37.844Z,14.38
2022-09-26T00:04:23.042Z,13.23
2022-09-26T00:06:55.955Z,12.10
2022-09-26T00:09:25.649Z,12.70
2022-09-26T00:11:53.233Z,12.98
2022-09-26T00:14:27.883Z,11.50
2022-09-26T00:16:54.954Z,12.63
2022-09-26T00:19:23.342Z,14.90
2022-09-26T00:21:50.299Z,14.70
2022-09-26T00:24:18.314Z,13.23
2022-09-26T00:26:45.478Z,13.07
2022-09-26T00:29:14.256Z,12.07
2022-09-26T00:31:45.867Z,14.30
2022-09-26T00:34:16.064Z,14.27
2022-09-26T00:36:43.118Z,15.10
2022-09-26T00:39:14.112Z,14.07
2022-09-26T00:41:41.717Z,13.70
2022-09-26T00:44:49.140Z,13.52
2022-09-26T00:47:40.611Z,14.55
2022-09-26T00:50:24.882Z,15.23
2022-09-26T00:52:57.942Z,14.20
2022-09-26T00:55:31.459Z,14.40
2022-09-26T00:58:10.478Z,14.05
2022-09-26T01:00:42.487Z,14.13
2022-09-26T01:03:10.365Z,14.20
2022-09-26T01:05:37.940Z,13.95
2022-09-26T01:08:06.201Z,14.43
2022-09-26T01:10:36.396Z,13.18
2022-09-26T01:13:04.254Z,13.27
2022-09-26T01:15:31.124Z,14.02
2022-09-26T01:17:58.168Z,13.80
2022-09-26T01:20:39.274Z,13.27
2022-09-26T01:24:00.826Z,13.15
2022-09-26T01:27:06.217Z,13.27
2022-09-26T01:30:09.408Z,14.85
2022-09-26T01:32:57.787Z,13.32
2022-09-26T01:35:28.364Z,14.18
2022-09-26T01:38:10.852Z,13.52
2022-09-26T01:41:04.903Z,14.20
2022-09-26T01:43:50.295Z,14.10
2022-09-26T01:49:25.809Z,15.27
2022-09-26T01:52:19.503Z,16.35
2022-09-26T01:54:58.329Z,16.80
2022-09-26T01:57:38.182Z,17.50
2022-09-26T02:00:09.105Z,18.17
2022-09-26T02:02:46.755Z,18.23
2022-09-26T02:05:33.338Z,18.48
2022-09-26T02:08:17.696Z,18.27
2022-09-26T02:11:06.281Z,18.88
2022-09-26T02:13:56.655Z,17.40
2022-09-26T02:16:43.257Z,17.05
2022-09-26T02:19:27.721Z,17.77
2022-09-26T02:21:56.004Z,17.43
2022-09-26T02:24:23.458Z,16.73
2022-09-26T02:26:52.250Z,15.75
2022-09-26T02:29:20.699Z,14.35
2022-09-26T02:32:03.828Z,11.80
2022-09-26T02:34:30.817Z,11.35
2022-09-26T02:37:00.859Z,9.10
2022-09-26T02:39:31.642Z,11.45
2022-09-26T02:42:21.217Z,11.38
2022-09-26T02:45:19.581Z,9.35
2022-09-26T02:48:16.844Z,10.25
2022-09-26T02:51:14.412Z,9.65
2022-09-26T02:54:07.030Z,7.88
2022-09-26T02:57:28.727Z,6.10
2022-09-26T03:00:27.213Z,5.95
2022-09-26T03:03:43.571Z,5.50
2022-09-26T03:06:17.873Z,6.20
2022-09-26T03:08:49.003Z,6.47
2022-09-26T03:11:23.760Z,5.85
2022-09-26T03:13:56.028Z,6.53
2022-09-26T03:16:29.100Z,6.55
2022-09-26T03:19:26.874Z,6.78
2022-09-26T03:21:54.902Z,7.55
2022-09-26T03:24:24.541Z,7.95
2022-09-26T03:26:51.816Z,7.60
2022-09-26T03:29:20.325Z,8.75
2022-09-26T03:31:50.301Z,8.32
2022-09-26T03:34:18.885Z,8.40
2022-09-26T03:36:47.027Z,7.45
2022-09-26T03:39:14.642Z,9.15
2022-09-26T03:42:07.581Z,7.22
2022-09-26T03:44:34.496Z,7.20
2022-09-26T03:47:04.775Z,7.95
2022-09-26T03:49:36.179Z,7.75
2022-09-26T03:52:03.629Z,8.30
2022-09-26T03:54:30.558Z,8.27
2022-09-26T03:56:57.625Z,9.05
2022-09-26T03:59:24.575Z,8.25
2022-09-26T04:01:52.306Z,7.93
2022-09-26T04:04:19.200Z,8.27
2022-09-26T04:06:46.366Z,9.05
2022-09-26T04:09:17.504Z,8.30
2022-09-26T04:11:48.737Z,10.07
2022-09-26T04:14:17.369Z,11.00
2022-09-26T04:16:48.318Z,12.10
2022-09-26T04:19:23.872Z,13.32
2022-09-26T04:21:52.109Z,10.98
2022-09-26T04:24:21.535Z,12.43
2022-09-26T04:26:48.629Z,14.43
2022-09-26T04:29:16.339Z,13.95
2022-09-26T04:31:56.126Z,15.73
2022-09-26T04:34:30.260Z,16.65
2022-09-26T04:36:59.280Z,14.65
2022-09-26T04:39:26.330Z,14.50
2022-09-26T04:41:54.254Z,13.23
2022-09-26T04:44:21.516Z,12.00
2022-09-26T04:46:48.570Z,12.43
2022-09-26T04:49:16.756Z,13.50
2022-09-26T04:51:44.178Z,13.95
2022-09-26T04:54:11.073Z,12.95
2022-09-26T04:56:40.702Z,13.27
2022-09-26T04:59:08.622Z,12.15
2022-09-26T05:01:45.100Z,11.25
2022-09-26T05:04:16.925Z,11.55
2022-09-26T05:06:43.868Z,9.98
2022-09-26T05:09:21.723Z,10.50
2022-09-26T05:11:53.722Z,11.77
2022-09-26T05:14:20.885Z,10.70
2022-09-26T05:16:49.092Z,10.02
2022-09-26T05:19:17.265Z,10.05
2022-09-26T05:22:07.112Z,10.20
2022-09-26T05:24:53.186Z,9.07
2022-09-26T05:27:21.196Z,9.60
2022-09-26T05:29:48.321Z,11.02
2022-09-26T05:32:20.747Z,10.88
2022-09-26T05:34:51.006Z,9.98
2022-09-26T05:37:20.700Z,9.60
2022-09-26T05:40:06.278Z,9.30
2022-09-26T05:42:36.450Z,9.40
2022-09-26T05:45:04.464Z,9.02
2022-09-26T05:47:36.233Z,9.75
2022-09-26T05:50:09.865Z,10.77
2022-09-26T05:52:39.120Z,10.60
2022-09-26T05:55:07.573Z,9.88
2022-09-26T05:58:07.782Z,15.48
2022-09-26T06:00:53.247Z,11.40
2022-09-26T06:03:20.460Z,11.52
2022-09-26T06:06:15.019Z,10.95
2022-09-26T06:08:43.940Z,12.07
2022-09-26T06:11:30.581Z,10.48
2022-09-26T06:14:00.673Z,11.90
2022-09-26T06:16:29.003Z,13.68
2022-09-26T06:18:56.628Z,11.65
2022-09-26T06:21:24.203Z,11.35
2022-09-26T06:23:59.277Z,12.57
2022-09-26T06:26:29.150Z,12.40
2022-09-26T06:28:59.999Z,12.10
2022-09-26T06:31:30.215Z,11.45
2022-09-26T06:34:09.462Z,10.70
2022-09-26T06:36:56.334Z,11.10
2022-09-26T06:39:23.496Z,12.00
2022-09-26T06:41:51.490Z,11.30
2022-09-26T06:44:35.664Z,10.80
2022-09-26T06:47:29.970Z,11.13
2022-09-26T06:50:12.899Z,10.45
2022-09-26T06:52:44.063Z,9.80
2022-09-26T06:55:11.931Z,10.75
2022-09-26T06:57:44.247Z,11.25
2022-09-26T07:00:15.898Z,8.68
2022-09-26T07:03:24.518Z,9.18
2022-09-26T07:06:06.270Z,10.38
2022-09-26T07:09:00.532Z,8.02
2022-09-26T07:11:38.087Z,8.63
2022-09-26T07:14:17.134Z,8.68
2022-09-26T07:16:53.481Z,8.43
2022-09-26T07:19:31.368Z,7.85
2022-09-26T07:22:08.107Z,8.60
2022-09-26T07:24:45.660Z,7.93
2022-09-26T07:27:13.040Z,7.78
2022-09-26T07:29:40.277Z,7.82
2022-09-26T07:32:07.265Z,7.97
2022-09-26T07:34:51.565Z,7.30
2022-09-26T07:37:18.922Z,7.60
2022-09-26T07:39:51.300Z,8.27
2022-09-26T07:42:21.671Z,7.70
2022-09-26T07:47:54.341Z,7.15
2022-09-26T07:50:39.965Z,6.85
2022-09-26T07:53:21.780Z,6.93
2022-09-26T07:56:12.177Z,6.80
2022-09-26T07:59:05.379Z,6.95
2022-09-26T08:01:44.960Z,5.80
2022-09-26T08:04:33.913Z,6.20
2022-09-26T08:07:01.985Z,6.68
2022-09-26T08:09:29.843Z,6.85
2022-09-26T08:14:49.463Z,7.15
2022-09-26T08:17:38.142Z,7.10
2022-09-26T08:20:06.107Z,12.07
2022-09-26T08:22:33.185Z,9.80
2022-09-26T08:25:00.408Z,7.53
2022-09-26T08:27:48.376Z,7.95
2022-09-26T08:30:15.548Z,13.45
2022-09-26T08:32:42.529Z,9.65
2022-09-26T08:35:14.787Z,6.85
2022-09-26T08:37:44.398Z,6.65
2022-09-26T08:40:53.074Z,7.28
2022-09-26T08:44:30.108Z,6.63
2022-09-26T08:47:32.652Z,6.70
2022-09-26T08:50:32.521Z,5.80
2022-09-26T08:53:11.670Z,5.93
2022-09-26T08:55:48.732Z,5.85
2022-09-26T08:58:28.905Z,5.90
2022-09-26T09:01:09.240Z,6.00
2022-09-26T09:04:21.239Z,7.30
2022-09-26T09:06:58.229Z,6.70
2022-09-26T09:09:25.177Z,6.80
2022-09-26T09:12:24.881Z,6.50
2022-09-26T09:15:48.954Z,7.25
2022-09-26T09:18:53.011Z,6.90
2022-09-26T09:21:59.049Z,6.32
2022-09-26T09:24:59.542Z,7.07
2022-09-26T09:28:13.227Z,6.22
2022-09-26T09:30:59.543Z,5.82
2022-09-26T09:34:00.660Z,5.10
2022-09-26T09:36:50.883Z,5.07
2022-09-26T09:39:40.095Z,4.50
2022-09-26T09:42:40.630Z,4.22
2022-09-26T09:45:34.286Z,4.22
2022-09-26T09:48:01.601Z,4.13
2022-09-26T09:50:45.610Z,3.80
2022-09-26T09:53:56.364Z,3.10
2022-09-26T09:56:45.428Z,2.33
2022-09-26T09:59:38.053Z,1.70
2022-09-26T10:02:37.047Z,1.50
2022-09-26T10:05:17.605Z,1.50
2022-09-26T10:07:47.597Z,1.10
2022-09-26T10:10:44.344Z,1.30
2022-09-26T10:13:43.691Z,0.77
2022-09-26T10:16:31.539Z,1.40
2022-09-26T10:19:08.382Z,1.10
2022-09-26T10:21:48.627Z,1.45
2022-09-26T10:24:43.271Z,1.10
2022-09-26T10:27:39.548Z,0.98
2022-09-26T10:30:31.777Z,1.65
2022-09-26T10:33:25.805Z,1.40
2022-09-26T10:36:32.596Z,1.08
2022-09-26T10:39:35.347Z,1.20
2022-09-26T10:42:04.621Z,0.98
2022-09-26T10:44:34.810Z,1.20
2022-09-26T10:47:14.921Z,1.30
2022-09-26T10:50:10.497Z,1.13
2022-09-26T10:53:11.716Z,1.98
2022-09-26T10:55:53.203Z,1.55
2022-09-26T10:58:25.158Z,1.20
2022-09-26T11:01:00.779Z,1.13
2022-09-26T11:03:44.800Z,1.30
2022-09-26T11:06:34.970Z,1.10
2022-09-26T11:09:20.735Z,0.93
2022-09-26T11:12:31.631Z,1.13
2022-09-26T11:15:14.166Z,1.00
2022-09-26T11:17:47.502Z,1.20
2022-09-26T11:20:52.594Z,0.90
2022-09-26T11:23:46.431Z,0.90
2022-09-26T11:26:37.386Z,0.80
2022-09-26T11:35:48.292Z,1.10
2022-09-26T11:38:39.139Z,0.90
2022-09-26T11:41:40.205Z,1.05
2022-09-26T11:44:40.144Z,1.17
2022-09-26T11:48:20.594Z,1.20
2022-09-26T11:51:54.360Z,0.73
2022-09-26T11:55:00.695Z,0.73
2022-09-26T11:57:34.886Z,0.77
2022-09-26T12:00:26.436Z,1.00
2022-09-26T12:03:43.573Z,0.70
2022-09-26T12:06:41.823Z,0.80
2022-09-26T12:10:09.489Z,0.80
2022-09-26T12:13:12.076Z,0.90
2022-09-26T12:15:56.887Z,0.80
2022-09-26T12:18:59.411Z,0.47
2022-09-26T12:21:36.043Z,0.90
2022-09-26T12:24:24.529Z,0.93
2022-09-26T12:27:11.530Z,0.90
2022-09-26T12:30:37.151Z,0.73
2022-09-26T12:33:31.111Z,1.05
2022-09-26T12:36:30.036Z,0.80
2022-09-26T12:39:15.697Z,0.80
2022-09-26T12:42:48.727Z,0.77
2022-09-26T12:46:04.546Z,0.50
2022-09-26T12:49:19.184Z,0.70
2022-09-26T12:51:55.678Z,0.65
2022-09-26T12:55:16.627Z,0.70
2022-09-26T12:58:23.458Z,0.80
2022-09-26T13:01:05.955Z,0.68
2022-09-26T13:04:00.645Z,0.60
2022-09-26T13:07:14.676Z,0.60
2022-09-26T13:10:01.696Z,0.55
2022-09-26T13:13:02.531Z,0.50
2022-09-26T13:15:43.957Z,0.50
2022-09-26T13:18:25.852Z,0.60
2022-09-26T13:21:01.402Z,0.52
2022-09-26T13:23:39.100Z,0.40
2022-09-26T13:26:22.718Z,0.40
2022-09-26T13:29:17.543Z,0.38
2022-09-26T13:32:03.643Z,0.50
2022-09-26T13:34:41.058Z,0.40
2022-09-26T13:37:47.821Z,0.50
2022-09-26T13:40:34.439Z,0.47
2022-09-26T13:43:43.492Z,0.30
2022-09-26T13:46:44.099Z,0.38
2022-09-26T13:50:03.235Z,0.40
2022-09-26T13:53:14.227Z,0.43
2022-09-26T13:55:43.618Z,0.40
2022-09-26T13:58:26.357Z,0.40
2022-09-26T14:00:53.601Z,0.20
2022-09-26T14:03:20.542Z,0.30
2022-09-26T14:06:06.371Z,0.50
2022-09-26T14:08:54.579Z,0.50
2022-09-26T14:11:51.321Z,0.70
2022-09-26T14:14:25.311Z,0.60
2022-09-26T14:17:00.035Z,0.50
2022-09-26T14:22:20.756Z,0.50
2022-09-26T14:24:51.877Z,0.50
2022-09-26T14:27:18.639Z,0.45
2022-09-26T14:30:06.859Z,0.50
2022-09-26T14:32:46.772Z,0.65
2022-09-26T14:35:28.233Z,0.32
2022-09-26T14:38:15.077Z,0.30
2022-09-26T14:40:58.051Z,0.60
2022-09-26T14:43:30.267Z,0.45
2022-09-26T14:46:14.912Z,0.55
2022-09-26T14:48:44.327Z,0.63
2022-09-26T14:51:11.180Z,0.50
2022-09-26T14:53:50.290Z,0.50
2022-09-26T14:56:26.120Z,0.45
2022-09-26T14:58:54.706Z,0.50
2022-09-26T15:01:30.294Z,0.60
2022-09-26T15:04:20.381Z,0.43
2022-09-26T15:06:53.029Z,0.40
2022-09-26T15:09:43.241Z,0.63
2022-09-26T15:12:26.791Z,0.50
2022-09-26T15:15:17.616Z,0.52
2022-09-26T15:17:59.139Z,0.40
2022-09-26T15:20:32.911Z,0.55
2022-09-26T15:23:01.507Z,0.50
2022-09-26T15:25:33.080Z,0.73
2022-09-26T15:28:01.504Z,0.60
2022-09-26T15:30:41.792Z,0.60
2022-09-26T15:33:17.578Z,0.55
2022-09-26T15:35:54.791Z,0.50
2022-09-26T15:38:24.681Z,0.40
2022-09-26T15:41:02.743Z,0.68
2022-09-26T15:43:35.355Z,0.50
2022-09-26T15:46:08.907Z,0.55
2022-09-26T15:48:43.160Z,0.90
2022-09-26T15:51:23.848Z,0.63
2022-09-26T15:53:59.685Z,0.60
2022-09-26T15:56:48.469Z,0.55
2022-09-26T15:59:32.485Z,0.47
2022-09-26T16:02:00.778Z,0.70
2022-09-26T16:04:32.063Z,0.50
2022-09-26T16:07:23.883Z,0.50
2022-09-26T16:09:51.977Z,0.55
2022-09-26T16:12:30.305Z,0.50
2022-09-26T16:15:13.490Z,0.50
2022-09-26T16:17:49.099Z,0.70
2022-09-26T16:20:16.311Z,0.50
2022-09-26T16:22:46.228Z,0.60
2022-09-26T16:25:19.107Z,0.70
2022-09-26T16:27:50.027Z,0.68
2022-09-26T16:30:45.285Z,0.47
2022-09-26T16:33:27.322Z,0.88
2022-09-26T16:35:54.748Z,0.60
2022-09-26T16:38:35.874Z,0.68
2022-09-26T16:41:56.446Z,0.90
2022-09-26T16:44:32.146Z,1.33
2022-09-26T16:47:06.250Z,1.00
2022-09-26T16:49:39.846Z,1.10
2022-09-26T16:52:26.756Z,0.85
2022-09-26T16:55:00.377Z,1.30
2022-09-26T16:57:52.310Z,0.90
2022-09-26T17:00:42.085Z,1.42
2022-09-26T17:03:25.875Z,1.08
2022-09-26T17:05:56.249Z,1.10
2022-09-26T17:08:26.422Z,1.40
2022-09-26T17:11:02.392Z,1.20
2022-09-26T17:13:33.830Z,1.00
2022-09-26T17:16:02.484Z,1.30
2022-09-26T17:18:33.017Z,1.23
2022-09-26T17:21:01.428Z,1.10
2022-09-26T17:23:41.446Z,1.30
2022-09-26T17:26:19.755Z,1.15
2022-09-26T17:28:47.643Z,1.10
2022-09-26T17:31:21.486Z,1.30
2022-09-26T17:33:53.536Z,1.42
2022-09-26T17:36:28.005Z,1.63
2022-09-26T17:38:59.653Z,1.60
2022-09-26T17:41:29.787Z,1.60
2022-09-26T17:44:00.460Z,1.60
2022-09-26T17:46:28.166Z,1.58
2022-09-26T17:48:55.919Z,1.75
2022-09-26T17:51:24.090Z,1.80
2022-09-26T17:53:52.562Z,1.90
2022-09-26T17:56:20.472Z,1.70
2022-09-26T17:58:48.931Z,1.73
2022-09-26T18:01:34.965Z,1.73
2022-09-26T18:04:07.368Z,2.00
2022-09-26T18:06:36.054Z,1.85
2022-09-26T18:09:07.568Z,1.35
2022-09-26T18:11:37.284Z,1.52
2022-09-26T18:14:08.151Z,1.60
2022-09-26T18:16:35.235Z,1.65
2022-09-26T18:19:06.241Z,1.48
2022-09-26T18:21:35.056Z,1.77
2022-09-26T18:24:06.755Z,1.90
2022-09-26T18:26:47.028Z,1.58
2022-09-26T18:29:22.476Z,1.95
2022-09-26T18:31:49.962Z,1.92
2022-09-26T18:34:19.793Z,2.15
2022-09-26T18:36:52.637Z,2.25
2022-09-26T18:39:19.589Z,2.00
2022-09-26T18:41:49.937Z,2.30
2022-09-26T18:44:18.213Z,2.42
2022-09-26T18:46:47.103Z,2.75
2022-09-26T18:49:15.916Z,2.22
2022-09-26T18:51:43.476Z,2.40
2022-09-26T18:54:16.195Z,2.65
2022-09-26T18:57:01.829Z,2.35
2022-09-26T18:59:32.102Z,2.75
2022-09-26T19:02:02.641Z,2.38
2022-09-26T19:04:30.755Z,2.35
2022-09-26T19:07:06.545Z,2.67
2022-09-26T19:09:35.652Z,3.10
2022-09-26T19:12:04.102Z,2.75
2022-09-26T19:14:32.117Z,2.45
2022-09-26T19:17:00.216Z,2.20
2022-09-26T19:19:28.786Z,2.30
2022-09-26T19:22:03.225Z,2.50
2022-09-26T19:25:00.830Z,2.40
2022-09-26T19:27:45.355Z,2.30
2022-09-26T19:30:21.156Z,2.33
2022-09-26T19:32:51.828Z,2.35
2022-09-26T19:35:39.022Z,2.60
2022-09-26T19:38:23.966Z,2.45
2022-09-26T19:40:53.367Z,2.63
2022-09-26T19:43:21.825Z,2.30
2022-09-26T19:45:53.384Z,2.50
2022-09-26T19:48:23.341Z,2.00
2022-09-26T19:50:52.487Z,2.72
2022-09-26T19:53:23.646Z,2.53
2022-09-26T19:55:50.812Z,2.17
2022-09-26T19:58:20.485Z,2.55
2022-09-26T20:01:09.634Z,2.72
2022-09-26T20:03:41.839Z,2.35
2022-09-26T20:06:22.674Z,1.92
2022-09-26T20:08:53.768Z,2.03
2022-09-26T20:11:22.323Z,2.00
2022-09-26T20:14:08.010Z,1.90
2022-09-26T20:16:40.700Z,2.30
2022-09-26T20:19:16.341Z,2.22
2022-09-26T20:21:44.687Z,2.17
2022-09-26T20:24:18.543Z,2.22
2022-09-26T20:26:47.941Z,2.05
2022-09-26T20:29:16.189Z,2.00
2022-09-26T20:31:43.644Z,2.40
2022-09-26T20:34:11.605Z,2.13
2022-09-26T20:36:46.054Z,2.65
2022-09-26T20:39:24.689Z,2.28
2022-09-26T20:41:52.600Z,2.05
2022-09-26T20:44:30.261Z,2.08
2022-09-26T20:47:01.372Z,1.80
2022-09-26T20:49:34.489Z,2.10
2022-09-26T20:52:03.402Z,2.13
2022-09-26T20:54:33.000Z,2.15
2022-09-26T20:57:01.411Z,2.38
2022-09-26T20:59:29.176Z,2.20
2022-09-26T21:01:58.564Z,2.03
2022-09-26T21:04:32.315Z,2.30
2022-09-26T21:06:59.287Z,2.00
2022-09-26T21:09:26.171Z,2.17
2022-09-26T21:11:53.026Z,2.60
2022-09-26T21:14:19.991Z,2.78
2022-09-26T21:16:51.257Z,3.00
2022-09-26T21:19:24.526Z,2.53
2022-09-26T21:22:02.732Z,2.55
2022-09-26T21:24:48.973Z,2.28
2022-09-26T21:27:15.929Z,2.50
2022-09-26T21:29:43.550Z,2.20
2022-09-26T21:32:19.118Z,2.60
2022-09-26T21:35:01.795Z,2.33
2022-09-26T21:37:30.104Z,2.22
2022-09-26T21:39:57.542Z,2.47
2022-09-26T21:42:26.144Z,2.72
2022-09-26T21:45:01.567Z,2.63
2022-09-26T21:47:28.579Z,2.38
2022-09-26T21:49:55.473Z,2.00
2022-09-26T21:52:36.940Z,2.20
2022-09-26T21:55:06.311Z,2.53
2022-09-26T21:57:41.271Z,2.60
2022-09-26T22:00:10.994Z,2.88
2022-09-26T22:02:41.754Z,3.45
2022-09-26T22:05:10.501Z,2.85
2022-09-26T22:07:38.361Z,3.20
2022-09-26T22:10:06.862Z,3.33
2022-09-26T22:12:34.686Z,2.92
2022-09-26T22:15:01.586Z,3.08
2022-09-26T22:17:28.550Z,2.97
2022-09-26T22:19:55.414Z,2.85
2022-09-26T22:22:22.340Z,2.88
2022-09-26T22:24:49.178Z,2.90
2022-09-26T22:27:16.112Z,2.97
2022-09-26T22:29:43.036Z,2.97
2022-09-26T22:32:10.008Z,3.38
2022-09-26T22:34:36.943Z,2.65
2022-09-26T22:37:03.935Z,3.15
2022-09-26T22:39:30.851Z,3.55
2022-09-26T22:41:57.717Z,3.20
2022-09-26T22:44:24.695Z,2.70
2022-09-26T22:46:51.639Z,2.92
2022-09-26T22:49:18.588Z,3.03
2022-09-26T22:51:45.517Z,3.13
2022-09-26T22:54:12.568Z,3.10
2022-09-26T22:56:39.424Z,3.00
2022-09-26T22:59:06.342Z,2.75
2022-09-26T23:01:33.390Z,2.47
2022-09-26T23:04:00.774Z,2.35
2022-09-26T23:06:28.099Z,2.58
2022-09-26T23:08:55.480Z,2.50
2022-09-26T23:11:22.699Z,2.72
2022-09-26T23:13:52.525Z,2.30
2022-09-26T23:16:23.767Z,2.25
2022-09-26T23:18:52.343Z,2.47
2022-09-26T23:21:23.237Z,2.78
2022-09-26T23:23:55.070Z,2.20
2022-09-26T23:26:29.568Z,2.08
2022-09-26T23:28:58.358Z,2.30
2022-09-26T23:31:27.408Z,1.88
2022-09-26T23:33:55.442Z,2.15
2022-09-26T23:36:22.853Z,1.60
2022-09-26T23:38:50.137Z,2.03
2022-09-26T23:41:17.483Z,1.77
2022-09-26T23:43:46.350Z,1.58
2022-09-26T23:46:14.092Z,2.22
2022-09-26T23:48:41.839Z,2.20
2022-09-26T23:51:09.901Z,2.00
2022-09-26T23:53:36.899Z,2.00
2022-09-26T23:56:13.740Z,1.92
2022-09-26T23:58:41.621Z,1.90
